RYR19KL GCLP-LEVC
Flight info
| Callsign | RYR19KL |
|---|---|
| Flight time | 2h 18m |
| Altitude | 38000 |
| Route | KORAL UG5 SONSO DCT NIRAL UN871 OSDAM UM985 BARPA DCT XAVIR DCT PIMOS DCT RIXUR DCT PEPAS DCT ARPEX DCT KOSEL DCT BUDIT DCT ETURA DCT XEBAR DCT POBOS DCT ASTRO |
| Aircraft | B38M/M-SDE1FGHILORVWXY/HB1 |
Departure
| Time | 2026-05-07 11:36 |
|---|---|
| Airport | Gran Canaria Airport (GCLP) |
Arrival
| Time | 2026-05-07 13:55 |
|---|---|
| Airport | Valencia Airport (LEVC) |
| Time | Latitude | Longitude | Altitude | Speed | Heading |
|---|---|---|---|---|---|
| 2026-05-07 11:22 | 27.93520 | -15.38975 | 87 ft | 0 kts | 291° |
| 2026-05-07 11:23 | 27.93516 | -15.38962 | 87 ft | 0 kts | 291° |
| 2026-05-07 11:29 | 27.93511 | -15.38948 | 87 ft | 4 kts | 291° |
| 2026-05-07 11:29 | 27.93502 | -15.38922 | 86 ft | 2 kts | 291° |
| 2026-05-07 11:29 | 27.93497 | -15.38896 | 86 ft | 4 kts | 254° |
| 2026-05-07 11:29 | 27.93512 | -15.38875 | 85 ft | 4 kts | 211° |
| 2026-05-07 11:30 | 27.93534 | -15.38863 | 86 ft | 1 kts | 201° |
| 2026-05-07 11:32 | 27.93510 | -15.38870 | 87 ft | 7 kts | 193° |
| 2026-05-07 11:32 | 27.93446 | -15.38853 | 86 ft | 14 kts | 131° |
| 2026-05-07 11:32 | 27.93384 | -15.38766 | 73 ft | 14 kts | 178° |
| 2026-05-07 11:33 | 27.93286 | -15.38806 | 71 ft | 16 kts | 200° |
| 2026-05-07 11:33 | 27.93150 | -15.38870 | 75 ft | 26 kts | 210° |
| 2026-05-07 11:33 | 27.92968 | -15.38953 | 84 ft | 28 kts | 202° |
| 2026-05-07 11:33 | 27.92787 | -15.39034 | 89 ft | 28 kts | 201° |
| 2026-05-07 11:34 | 27.92612 | -15.39111 | 95 ft | 26 kts | 201° |
| 2026-05-07 11:34 | 27.92500 | -15.39161 | 96 ft | 26 kts | 201° |
| 2026-05-07 11:34 | 27.92334 | -15.39233 | 101 ft | 25 kts | 202° |
| 2026-05-07 11:34 | 27.92168 | -15.39304 | 100 ft | 27 kts | 189° |
| 2026-05-07 11:35 | 27.91984 | -15.39295 | 92 ft | 22 kts | 176° |
| 2026-05-07 11:35 | 27.91959 | -15.39202 | 90 ft | 15 kts | 20° |
| 2026-05-07 11:35 | 27.92108 | -15.39137 | 85 ft | 47 kts | 21° |
| 2026-05-07 11:35 | 27.92679 | -15.38884 | 67 ft | 127 kts | 21° |
| 2026-05-07 11:36 | 27.93688 | -15.38435 | 300 ft | 172 kts | 22° |
| 2026-05-07 11:36 | 27.94803 | -15.37881 | 1246 ft | 183 kts | 24° |
| 2026-05-07 11:36 | 27.96047 | -15.37287 | 1900 ft | 212 kts | 20° |
| 2026-05-07 11:36 | 27.97524 | -15.36673 | 2562 ft | 227 kts | 19° |
| 2026-05-07 11:37 | 27.99015 | -15.36058 | 3566 ft | 236 kts | 17° |
| 2026-05-07 11:37 | 28.00619 | -15.35392 | 3816 ft | 251 kts | 18° |
| 2026-05-07 11:37 | 28.02272 | -15.34696 | 3929 ft | 255 kts | 18° |
| 2026-05-07 11:37 | 28.03939 | -15.33991 | 3995 ft | 256 kts | 18° |
| 2026-05-07 11:38 | 28.05606 | -15.33268 | 3994 ft | 257 kts | 18° |
| 2026-05-07 11:38 | 28.07276 | -15.32542 | 4033 ft | 257 kts | 19° |
| 2026-05-07 11:38 | 28.08951 | -15.31815 | 4047 ft | 257 kts | 19° |
| 2026-05-07 11:38 | 28.10627 | -15.31088 | 4040 ft | 259 kts | 19° |
| 2026-05-07 11:39 | 28.12317 | -15.30353 | 4049 ft | 261 kts | 19° |
| 2026-05-07 11:39 | 28.13945 | -15.29435 | 4213 ft | 265 kts | 38° |
| 2026-05-07 11:39 | 28.15117 | -15.27821 | 5154 ft | 269 kts | 52° |
| 2026-05-07 11:39 | 28.16208 | -15.26058 | 6026 ft | 277 kts | 53° |
| 2026-05-07 11:40 | 28.17309 | -15.24240 | 6939 ft | 283 kts | 53° |
| 2026-05-07 11:40 | 28.18421 | -15.22378 | 7814 ft | 288 kts | 54° |
| 2026-05-07 11:40 | 28.19547 | -15.20474 | 8680 ft | 294 kts | 54° |
| 2026-05-07 11:40 | 28.20688 | -15.18530 | 9551 ft | 299 kts | 55° |
| 2026-05-07 11:41 | 28.21849 | -15.16548 | 10337 ft | 306 kts | 55° |
| 2026-05-07 11:41 | 28.23057 | -15.14481 | 10769 ft | 324 kts | 55° |
| 2026-05-07 11:41 | 28.24337 | -15.12288 | 11172 ft | 342 kts | 55° |
| 2026-05-07 11:41 | 28.25673 | -15.09997 | 11696 ft | 354 kts | 55° |
| 2026-05-07 11:42 | 28.27037 | -15.07658 | 12427 ft | 357 kts | 55° |
| 2026-05-07 11:42 | 28.28417 | -15.05288 | 13105 ft | 363 kts | 55° |
| 2026-05-07 11:42 | 28.29819 | -15.02881 | 13792 ft | 368 kts | 55° |
| 2026-05-07 11:42 | 28.31239 | -15.00439 | 14385 ft | 373 kts | 55° |
| 2026-05-07 11:43 | 28.32678 | -14.97964 | 14965 ft | 378 kts | 55° |
| 2026-05-07 11:43 | 28.34133 | -14.95459 | 15555 ft | 383 kts | 55° |
| 2026-05-07 11:43 | 28.35607 | -14.92921 | 16131 ft | 387 kts | 56° |
| 2026-05-07 11:43 | 28.37098 | -14.90353 | 16671 ft | 393 kts | 56° |
| 2026-05-07 11:44 | 28.38609 | -14.87749 | 17223 ft | 397 kts | 56° |
| 2026-05-07 11:44 | 28.40137 | -14.85113 | 17756 ft | 402 kts | 56° |
| 2026-05-07 11:44 | 28.41680 | -14.82451 | 18285 ft | 406 kts | 56° |
| 2026-05-07 11:44 | 28.43240 | -14.79756 | 18758 ft | 410 kts | 56° |
| 2026-05-07 11:45 | 28.44814 | -14.77037 | 19225 ft | 414 kts | 56° |
| 2026-05-07 11:45 | 28.46401 | -14.74292 | 19701 ft | 417 kts | 56° |
| 2026-05-07 11:45 | 28.47999 | -14.71527 | 20187 ft | 420 kts | 56° |
| 2026-05-07 11:45 | 28.49609 | -14.68740 | 20663 ft | 423 kts | 56° |
| 2026-05-07 11:46 | 28.51228 | -14.65934 | 21132 ft | 426 kts | 55° |
| 2026-05-07 11:46 | 28.52860 | -14.63104 | 21607 ft | 429 kts | 55° |
| 2026-05-07 11:46 | 28.54502 | -14.60255 | 22074 ft | 432 kts | 55° |
| 2026-05-07 11:46 | 28.56154 | -14.57386 | 22544 ft | 435 kts | 55° |
| 2026-05-07 11:47 | 28.57819 | -14.54494 | 23033 ft | 438 kts | 55° |
| 2026-05-07 11:47 | 28.59492 | -14.51587 | 23505 ft | 441 kts | 55° |
| 2026-05-07 11:47 | 28.61175 | -14.48659 | 23916 ft | 444 kts | 55° |
| 2026-05-07 11:47 | 28.62867 | -14.45713 | 24330 ft | 446 kts | 55° |
| 2026-05-07 11:48 | 28.64568 | -14.42749 | 24745 ft | 448 kts | 55° |
| 2026-05-07 11:48 | 28.66274 | -14.39775 | 25153 ft | 450 kts | 55° |
| 2026-05-07 11:48 | 28.67987 | -14.36785 | 25553 ft | 452 kts | 54° |
| 2026-05-07 11:48 | 28.69710 | -14.33777 | 25946 ft | 454 kts | 54° |
| 2026-05-07 11:49 | 28.71439 | -14.30756 | 26334 ft | 456 kts | 54° |
| 2026-05-07 11:49 | 28.73174 | -14.27723 | 26722 ft | 458 kts | 54° |
| 2026-05-07 11:49 | 28.74920 | -14.24669 | 27099 ft | 461 kts | 54° |
| 2026-05-07 11:49 | 28.76671 | -14.21603 | 27466 ft | 463 kts | 54° |
| 2026-05-07 11:50 | 28.78428 | -14.18523 | 27864 ft | 465 kts | 54° |
| 2026-05-07 11:50 | 28.80194 | -14.15426 | 28199 ft | 467 kts | 54° |
| 2026-05-07 11:50 | 28.81948 | -14.12348 | 28537 ft | 470 kts | 54° |
| 2026-05-07 11:50 | 28.83754 | -14.09177 | 28901 ft | 472 kts | 54° |
| 2026-05-07 11:51 | 28.85521 | -14.06071 | 29231 ft | 474 kts | 54° |
| 2026-05-07 11:51 | 28.87342 | -14.02869 | 29580 ft | 476 kts | 54° |
| 2026-05-07 11:51 | 28.89148 | -13.99691 | 29912 ft | 478 kts | 54° |
| 2026-05-07 11:51 | 28.90960 | -13.96498 | 30210 ft | 480 kts | 54° |
| 2026-05-07 11:52 | 28.92754 | -13.93337 | 30483 ft | 482 kts | 54° |
| 2026-05-07 11:52 | 28.94604 | -13.90073 | 30756 ft | 484 kts | 54° |
| 2026-05-07 11:52 | 28.96434 | -13.86842 | 31040 ft | 486 kts | 54° |
| 2026-05-07 11:52 | 28.98268 | -13.83601 | 31306 ft | 488 kts | 54° |
| 2026-05-07 11:53 | 29.00114 | -13.80336 | 31594 ft | 489 kts | 54° |
| 2026-05-07 11:53 | 29.01963 | -13.77065 | 31870 ft | 491 kts | 54° |
| 2026-05-07 11:53 | 29.03815 | -13.73784 | 32139 ft | 493 kts | 54° |
| 2026-05-07 11:53 | 29.05649 | -13.70534 | 32402 ft | 494 kts | 54° |
| 2026-05-07 11:54 | 29.07515 | -13.67225 | 32690 ft | 495 kts | 53° |
| 2026-05-07 11:54 | 29.09379 | -13.63917 | 33055 ft | 495 kts | 53° |
| 2026-05-07 11:54 | 29.11237 | -13.60617 | 33442 ft | 493 kts | 53° |
| 2026-05-07 11:54 | 29.13093 | -13.57318 | 33823 ft | 492 kts | 53° |
| 2026-05-07 11:55 | 29.14943 | -13.54029 | 34150 ft | 492 kts | 53° |
| 2026-05-07 11:55 | 29.16836 | -13.50769 | 34414 ft | 491 kts | 50° |
| 2026-05-07 11:55 | 29.18807 | -13.47592 | 34722 ft | 489 kts | 51° |
| 2026-05-07 11:55 | 29.20761 | -13.44413 | 35085 ft | 486 kts | 51° |
| 2026-05-07 11:56 | 29.22697 | -13.41247 | 35378 ft | 485 kts | 51° |
| 2026-05-07 11:56 | 29.24657 | -13.38039 | 35650 ft | 485 kts | 50° |
| 2026-05-07 11:56 | 29.26558 | -13.34922 | 35909 ft | 484 kts | 50° |
| 2026-05-07 11:56 | 29.28485 | -13.31762 | 36163 ft | 483 kts | 50° |
| 2026-05-07 11:57 | 29.30404 | -13.28612 | 36413 ft | 482 kts | 50° |
| 2026-05-07 11:57 | 29.32323 | -13.25460 | 36648 ft | 482 kts | 50° |
| 2026-05-07 11:57 | 29.34237 | -13.22314 | 36879 ft | 481 kts | 50° |
| 2026-05-07 11:57 | 29.36149 | -13.19169 | 37106 ft | 480 kts | 50° |
| 2026-05-07 11:58 | 29.38056 | -13.16029 | 37326 ft | 480 kts | 50° |
| 2026-05-07 11:58 | 29.39959 | -13.12893 | 37534 ft | 479 kts | 50° |
| 2026-05-07 11:58 | 29.41881 | -13.09723 | 37809 ft | 477 kts | 50° |
| 2026-05-07 11:58 | 29.43744 | -13.06650 | 38032 ft | 475 kts | 50° |
| 2026-05-07 11:59 | 29.45631 | -13.03533 | 38063 ft | 475 kts | 50° |
| 2026-05-07 11:59 | 29.49391 | -12.97317 | 38046 ft | 474 kts | 50° |
| 2026-05-07 12:00 | 29.53157 | -12.91082 | 38033 ft | 476 kts | 50° |
| 2026-05-07 12:00 | 29.56955 | -12.84782 | 38039 ft | 476 kts | 50° |
| 2026-05-07 12:01 | 29.60719 | -12.78531 | 38033 ft | 476 kts | 50° |
| 2026-05-07 12:01 | 29.64478 | -12.72279 | 38031 ft | 475 kts | 51° |
| 2026-05-07 12:02 | 29.68224 | -12.66038 | 38033 ft | 474 kts | 51° |
| 2026-05-07 12:02 | 29.71971 | -12.59789 | 38030 ft | 475 kts | 51° |
| 2026-05-07 12:03 | 29.75669 | -12.53552 | 38034 ft | 475 kts | 51° |
| 2026-05-07 12:03 | 29.79387 | -12.47272 | 38030 ft | 475 kts | 51° |
| 2026-05-07 12:04 | 29.83107 | -12.40980 | 38043 ft | 476 kts | 51° |
| 2026-05-07 12:04 | 29.86853 | -12.34632 | 38030 ft | 476 kts | 51° |
| 2026-05-07 12:05 | 29.90545 | -12.28367 | 38023 ft | 476 kts | 51° |
| 2026-05-07 12:05 | 29.94264 | -12.22047 | 38030 ft | 476 kts | 51° |
| 2026-05-07 12:06 | 29.97979 | -12.15725 | 38017 ft | 476 kts | 51° |
| 2026-05-07 12:06 | 30.01833 | -12.09543 | 37997 ft | 469 kts | 40° |
| 2026-05-07 12:07 | 30.06501 | -12.04323 | 37988 ft | 468 kts | 39° |
| 2026-05-07 12:07 | 30.11169 | -11.99078 | 38020 ft | 469 kts | 40° |
| 2026-05-07 12:08 | 30.15846 | -11.93838 | 38018 ft | 468 kts | 40° |
| 2026-05-07 12:08 | 30.20522 | -11.88591 | 38017 ft | 468 kts | 40° |
| 2026-05-07 12:09 | 30.25195 | -11.83342 | 38016 ft | 469 kts | 40° |
| 2026-05-07 12:09 | 30.29869 | -11.78084 | 38017 ft | 469 kts | 40° |
| 2026-05-07 12:10 | 30.34540 | -11.72823 | 38015 ft | 469 kts | 40° |
| 2026-05-07 12:10 | 30.39207 | -11.67557 | 38014 ft | 468 kts | 40° |
| 2026-05-07 12:11 | 30.43875 | -11.62283 | 38036 ft | 469 kts | 40° |
| 2026-05-07 12:11 | 30.48545 | -11.57001 | 38013 ft | 469 kts | 39° |
| 2026-05-07 12:12 | 30.53216 | -11.51709 | 38019 ft | 470 kts | 40° |
| 2026-05-07 12:12 | 30.57885 | -11.46412 | 38016 ft | 470 kts | 40° |
| 2026-05-07 12:13 | 30.62556 | -11.41105 | 38012 ft | 470 kts | 40° |
| 2026-05-07 12:13 | 30.67224 | -11.35794 | 38015 ft | 470 kts | 40° |
| 2026-05-07 12:14 | 30.71891 | -11.30476 | 38009 ft | 470 kts | 40° |
| 2026-05-07 12:14 | 30.76552 | -11.25159 | 38036 ft | 470 kts | 40° |
| 2026-05-07 12:15 | 30.81214 | -11.19832 | 38011 ft | 470 kts | 40° |
| 2026-05-07 12:15 | 30.85883 | -11.14490 | 38007 ft | 471 kts | 40° |
| 2026-05-07 12:16 | 30.90548 | -11.09144 | 38008 ft | 471 kts | 40° |
| 2026-05-07 12:16 | 30.94453 | -11.04663 | 38007 ft | 470 kts | 40° |
| 2026-05-07 12:17 | 30.99113 | -10.99308 | 38007 ft | 471 kts | 40° |
| 2026-05-07 12:17 | 31.03773 | -10.93947 | 38007 ft | 471 kts | 41° |
| 2026-05-07 12:18 | 31.08431 | -10.88579 | 38012 ft | 471 kts | 40° |
| 2026-05-07 12:18 | 31.13089 | -10.83203 | 38004 ft | 471 kts | 40° |
| 2026-05-07 12:19 | 31.17749 | -10.77818 | 38000 ft | 471 kts | 40° |
| 2026-05-07 12:19 | 31.22406 | -10.72428 | 38001 ft | 471 kts | 40° |
| 2026-05-07 12:20 | 31.27063 | -10.67030 | 37994 ft | 471 kts | 40° |
| 2026-05-07 12:20 | 31.31716 | -10.61629 | 37997 ft | 472 kts | 40° |
| 2026-05-07 12:21 | 31.36371 | -10.56218 | 38024 ft | 472 kts | 41° |
| 2026-05-07 12:21 | 31.41026 | -10.50798 | 37989 ft | 472 kts | 41° |
| 2026-05-07 12:22 | 31.45682 | -10.45369 | 37990 ft | 473 kts | 41° |
| 2026-05-07 12:22 | 31.50338 | -10.39933 | 37994 ft | 473 kts | 41° |
| 2026-05-07 12:23 | 31.54992 | -10.34489 | 37990 ft | 473 kts | 41° |
| 2026-05-07 12:23 | 31.59646 | -10.29039 | 38000 ft | 473 kts | 41° |
| 2026-05-07 12:24 | 31.64296 | -10.23585 | 37983 ft | 473 kts | 41° |
| 2026-05-07 12:24 | 31.68949 | -10.18119 | 37996 ft | 473 kts | 41° |
| 2026-05-07 12:25 | 31.73598 | -10.12650 | 37981 ft | 473 kts | 41° |
| 2026-05-07 12:25 | 31.78246 | -10.07173 | 37982 ft | 473 kts | 41° |
| 2026-05-07 12:26 | 31.82895 | -10.01688 | 37984 ft | 475 kts | 41° |
| 2026-05-07 12:26 | 31.87580 | -9.96150 | 37980 ft | 480 kts | 41° |
| 2026-05-07 12:27 | 31.92315 | -9.90546 | 37980 ft | 485 kts | 41° |
| 2026-05-07 12:27 | 31.97045 | -9.84938 | 38006 ft | 486 kts | 41° |
| 2026-05-07 12:28 | 32.01809 | -9.79282 | 37978 ft | 486 kts | 41° |
| 2026-05-07 12:28 | 32.06570 | -9.73621 | 37981 ft | 486 kts | 41° |
| 2026-05-07 12:29 | 32.11328 | -9.67954 | 37970 ft | 486 kts | 41° |
| 2026-05-07 12:29 | 32.16085 | -9.62278 | 37974 ft | 486 kts | 41° |
| 2026-05-07 12:30 | 32.20838 | -9.56600 | 37977 ft | 486 kts | 41° |
| 2026-05-07 12:30 | 32.25593 | -9.50910 | 37976 ft | 487 kts | 41° |
| 2026-05-07 12:31 | 32.30353 | -9.45204 | 37972 ft | 488 kts | 42° |
| 2026-05-07 12:31 | 32.35102 | -9.39502 | 37972 ft | 486 kts | 42° |
| 2026-05-07 12:32 | 32.39848 | -9.33796 | 37968 ft | 486 kts | 42° |
| 2026-05-07 12:32 | 32.44591 | -9.28084 | 37969 ft | 486 kts | 42° |
| 2026-05-07 12:33 | 32.51702 | -9.19503 | 37965 ft | 487 kts | 42° |
| 2026-05-07 12:33 | 32.56441 | -9.13773 | 38003 ft | 487 kts | 41° |
| 2026-05-07 12:34 | 32.61191 | -9.08020 | 37958 ft | 488 kts | 42° |
| 2026-05-07 12:34 | 32.65933 | -9.02268 | 37967 ft | 487 kts | 42° |
| 2026-05-07 12:35 | 32.70671 | -8.96511 | 37965 ft | 487 kts | 42° |
| 2026-05-07 12:35 | 32.75407 | -8.90747 | 37968 ft | 487 kts | 42° |
| 2026-05-07 12:36 | 32.80140 | -8.84978 | 37969 ft | 487 kts | 42° |
| 2026-05-07 12:36 | 32.84873 | -8.79200 | 37997 ft | 488 kts | 42° |
| 2026-05-07 12:37 | 32.89610 | -8.73407 | 37968 ft | 489 kts | 42° |
| 2026-05-07 12:37 | 32.94350 | -8.67602 | 37970 ft | 488 kts | 42° |
| 2026-05-07 12:38 | 32.99083 | -8.61798 | 37972 ft | 488 kts | 42° |
| 2026-05-07 12:38 | 33.03812 | -8.55989 | 37968 ft | 488 kts | 42° |
| 2026-05-07 12:39 | 33.08542 | -8.50169 | 37970 ft | 489 kts | 42° |
| 2026-05-07 12:39 | 33.13267 | -8.44346 | 37973 ft | 489 kts | 42° |
| 2026-05-07 12:40 | 33.17994 | -8.38512 | 37972 ft | 488 kts | 41° |
| 2026-05-07 12:40 | 33.20551 | -8.35911 | 37948 ft | 479 kts | 27° |
| 2026-05-07 12:40 | 33.23372 | -8.33817 | 37971 ft | 479 kts | 28° |
| 2026-05-07 12:41 | 33.28985 | -8.29521 | 37986 ft | 479 kts | 28° |
| 2026-05-07 12:41 | 33.34630 | -8.25260 | 37971 ft | 479 kts | 27° |
| 2026-05-07 12:42 | 33.40267 | -8.21005 | 37972 ft | 479 kts | 27° |
| 2026-05-07 12:42 | 33.45911 | -8.16739 | 37978 ft | 480 kts | 27° |
| 2026-05-07 12:43 | 33.51552 | -8.12468 | 37980 ft | 480 kts | 27° |
| 2026-05-07 12:43 | 33.57199 | -8.08186 | 37979 ft | 480 kts | 27° |
| 2026-05-07 12:44 | 33.62847 | -8.03897 | 37977 ft | 480 kts | 27° |
| 2026-05-07 12:44 | 33.68490 | -7.99604 | 37976 ft | 480 kts | 27° |
| 2026-05-07 12:45 | 33.74134 | -7.95305 | 37980 ft | 480 kts | 27° |
| 2026-05-07 12:45 | 33.79773 | -7.91001 | 37987 ft | 481 kts | 27° |
| 2026-05-07 12:46 | 33.85419 | -7.86686 | 37976 ft | 481 kts | 27° |
| 2026-05-07 12:46 | 33.91062 | -7.82366 | 37982 ft | 481 kts | 27° |
| 2026-05-07 12:47 | 33.96703 | -7.78042 | 37985 ft | 481 kts | 27° |
| 2026-05-07 12:47 | 34.02353 | -7.73703 | 37976 ft | 482 kts | 27° |
| 2026-05-07 12:48 | 34.08044 | -7.69326 | 37977 ft | 482 kts | 27° |
| 2026-05-07 12:48 | 34.13695 | -7.64972 | 37977 ft | 482 kts | 27° |
| 2026-05-07 12:49 | 34.19344 | -7.60613 | 37977 ft | 482 kts | 27° |
| 2026-05-07 12:49 | 34.24986 | -7.56252 | 38010 ft | 480 kts | 27° |
| 2026-05-07 12:50 | 34.30619 | -7.51892 | 37971 ft | 481 kts | 27° |
| 2026-05-07 12:50 | 34.36255 | -7.47521 | 37975 ft | 481 kts | 27° |
| 2026-05-07 12:51 | 34.41890 | -7.43145 | 37970 ft | 481 kts | 27° |
| 2026-05-07 12:51 | 34.47524 | -7.38762 | 37972 ft | 481 kts | 27° |
| 2026-05-07 12:52 | 34.53122 | -7.34401 | 37991 ft | 482 kts | 27° |
| 2026-05-07 12:52 | 34.58758 | -7.30001 | 37966 ft | 482 kts | 27° |
| 2026-05-07 12:53 | 34.64402 | -7.25590 | 37969 ft | 482 kts | 27° |
| 2026-05-07 12:53 | 34.70041 | -7.21174 | 37975 ft | 482 kts | 27° |
| 2026-05-07 12:54 | 34.75674 | -7.16756 | 37967 ft | 481 kts | 27° |
| 2026-05-07 12:54 | 34.81296 | -7.12339 | 37981 ft | 481 kts | 27° |
| 2026-05-07 12:55 | 34.86917 | -7.07917 | 37966 ft | 481 kts | 27° |
| 2026-05-07 12:55 | 34.92538 | -7.03487 | 37967 ft | 481 kts | 27° |
| 2026-05-07 12:56 | 34.98158 | -6.99050 | 37963 ft | 481 kts | 27° |
| 2026-05-07 12:56 | 35.02869 | -6.95324 | 37962 ft | 481 kts | 27° |
| 2026-05-07 12:57 | 35.08490 | -6.90873 | 37973 ft | 482 kts | 26° |
| 2026-05-07 12:57 | 35.14110 | -6.86415 | 37967 ft | 482 kts | 26° |
| 2026-05-07 12:58 | 35.19727 | -6.81954 | 37966 ft | 480 kts | 26° |
| 2026-05-07 12:58 | 35.25322 | -6.77503 | 37961 ft | 480 kts | 26° |
| 2026-05-07 12:59 | 35.30915 | -6.73045 | 37957 ft | 480 kts | 26° |
| 2026-05-07 12:59 | 35.33611 | -6.70597 | 37935 ft | 489 kts | 38° |
| 2026-05-07 12:59 | 35.35775 | -6.67355 | 37934 ft | 497 kts | 53° |
| 2026-05-07 13:00 | 35.39361 | -6.60045 | 37946 ft | 502 kts | 54° |
| 2026-05-07 13:00 | 35.42908 | -6.52655 | 37956 ft | 503 kts | 55° |
| 2026-05-07 13:01 | 35.46558 | -6.45358 | 37963 ft | 502 kts | 53° |
| 2026-05-07 13:01 | 35.50237 | -6.38100 | 37953 ft | 501 kts | 53° |
| 2026-05-07 13:02 | 35.53908 | -6.30828 | 37955 ft | 501 kts | 53° |
| 2026-05-07 13:02 | 35.57575 | -6.23547 | 37957 ft | 501 kts | 53° |
| 2026-05-07 13:03 | 35.61242 | -6.16254 | 37979 ft | 502 kts | 53° |
| 2026-05-07 13:03 | 35.64909 | -6.08943 | 37963 ft | 503 kts | 53° |
| 2026-05-07 13:04 | 35.68568 | -6.01633 | 37965 ft | 501 kts | 53° |
| 2026-05-07 13:04 | 35.72217 | -5.94328 | 37972 ft | 502 kts | 53° |
| 2026-05-07 13:05 | 35.75469 | -5.86689 | 37997 ft | 506 kts | 59° |
| 2026-05-07 13:05 | 35.78542 | -5.78896 | 37963 ft | 505 kts | 59° |
| 2026-05-07 13:06 | 35.81602 | -5.71092 | 37958 ft | 506 kts | 60° |
| 2026-05-07 13:06 | 35.84707 | -5.63338 | 37937 ft | 503 kts | 59° |
| 2026-05-07 13:07 | 35.87836 | -5.55609 | 37942 ft | 504 kts | 59° |
| 2026-05-07 13:07 | 35.90956 | -5.47874 | 37942 ft | 504 kts | 59° |
| 2026-05-07 13:08 | 35.94073 | -5.40126 | 37937 ft | 504 kts | 59° |
| 2026-05-07 13:08 | 35.97185 | -5.32373 | 37950 ft | 504 kts | 59° |
| 2026-05-07 13:09 | 36.00307 | -5.24621 | 37934 ft | 504 kts | 58° |
| 2026-05-07 13:09 | 36.03541 | -5.16938 | 37931 ft | 504 kts | 58° |
| 2026-05-07 13:10 | 36.06755 | -5.09246 | 37934 ft | 504 kts | 58° |
| 2026-05-07 13:10 | 36.09967 | -5.01540 | 37931 ft | 504 kts | 58° |
| 2026-05-07 13:11 | 36.13172 | -4.93831 | 37947 ft | 505 kts | 58° |
| 2026-05-07 13:11 | 36.17097 | -4.86787 | 37949 ft | 492 kts | 38° |
| 2026-05-07 13:12 | 36.21841 | -4.80603 | 37940 ft | 496 kts | 40° |
| 2026-05-07 13:12 | 36.26642 | -4.74384 | 37931 ft | 496 kts | 40° |
| 2026-05-07 13:13 | 36.31383 | -4.68251 | 37939 ft | 496 kts | 40° |
| 2026-05-07 13:13 | 36.36153 | -4.62069 | 37939 ft | 496 kts | 40° |
| 2026-05-07 13:14 | 36.40922 | -4.55877 | 37942 ft | 497 kts | 40° |
| 2026-05-07 13:14 | 36.45726 | -4.49628 | 37924 ft | 503 kts | 40° |
| 2026-05-07 13:15 | 36.50553 | -4.43335 | 37940 ft | 503 kts | 40° |
| 2026-05-07 13:15 | 36.55377 | -4.37035 | 37950 ft | 503 kts | 40° |
| 2026-05-07 13:16 | 36.60199 | -4.30726 | 37943 ft | 503 kts | 40° |
| 2026-05-07 13:16 | 36.65016 | -4.24411 | 37943 ft | 503 kts | 40° |
| 2026-05-07 13:17 | 36.69830 | -4.18087 | 37950 ft | 504 kts | 40° |
| 2026-05-07 13:17 | 36.74658 | -4.11733 | 37950 ft | 505 kts | 40° |
| 2026-05-07 13:18 | 36.79480 | -4.05373 | 37956 ft | 505 kts | 40° |
| 2026-05-07 13:18 | 36.84329 | -3.98968 | 37942 ft | 504 kts | 40° |
| 2026-05-07 13:19 | 36.89113 | -3.92634 | 37945 ft | 505 kts | 40° |
| 2026-05-07 13:19 | 36.93925 | -3.86250 | 37988 ft | 505 kts | 40° |
| 2026-05-07 13:20 | 36.98768 | -3.79812 | 37936 ft | 504 kts | 40° |
| 2026-05-07 13:20 | 37.03564 | -3.73427 | 37938 ft | 503 kts | 40° |
| 2026-05-07 13:21 | 37.08357 | -3.67034 | 37939 ft | 503 kts | 40° |
| 2026-05-07 13:21 | 37.13187 | -3.60694 | 37941 ft | 503 kts | 39° |
| 2026-05-07 13:22 | 37.18054 | -3.54397 | 37938 ft | 503 kts | 39° |
| 2026-05-07 13:22 | 37.22911 | -3.48119 | 37918 ft | 500 kts | 40° |
| 2026-05-07 13:23 | 37.27745 | -3.41856 | 37956 ft | 500 kts | 40° |
| 2026-05-07 13:23 | 37.32561 | -3.35605 | 37943 ft | 497 kts | 40° |
| 2026-05-07 13:24 | 37.37362 | -3.29362 | 37946 ft | 497 kts | 40° |
| 2026-05-07 13:24 | 37.42168 | -3.23099 | 37938 ft | 497 kts | 40° |
| 2026-05-07 13:25 | 37.46960 | -3.16842 | 37944 ft | 495 kts | 41° |
| 2026-05-07 13:25 | 37.51733 | -3.10599 | 37945 ft | 495 kts | 41° |
| 2026-05-07 13:26 | 37.56503 | -3.04347 | 37942 ft | 495 kts | 41° |
| 2026-05-07 13:26 | 37.61271 | -2.98086 | 37953 ft | 495 kts | 41° |
| 2026-05-07 13:27 | 37.66037 | -2.91815 | 37941 ft | 495 kts | 41° |
| 2026-05-07 13:27 | 37.70796 | -2.85542 | 37954 ft | 494 kts | 42° |
| 2026-05-07 13:28 | 37.75554 | -2.79257 | 37927 ft | 495 kts | 42° |
| 2026-05-07 13:28 | 37.80293 | -2.72987 | 37956 ft | 493 kts | 42° |
| 2026-05-07 13:29 | 37.85037 | -2.66697 | 37936 ft | 494 kts | 43° |
| 2026-05-07 13:29 | 37.89795 | -2.60375 | 37958 ft | 498 kts | 43° |
| 2026-05-07 13:30 | 37.94570 | -2.54019 | 37929 ft | 498 kts | 43° |
| 2026-05-07 13:30 | 37.99338 | -2.47658 | 37951 ft | 499 kts | 43° |
| 2026-05-07 13:31 | 38.04116 | -2.41272 | 37945 ft | 499 kts | 43° |
| 2026-05-07 13:31 | 38.08871 | -2.34899 | 37640 ft | 492 kts | 43° |
| 2026-05-07 13:32 | 38.11232 | -2.31736 | 36711 ft | 496 kts | 43° |
| 2026-05-07 13:32 | 38.13594 | -2.28565 | 36166 ft | 492 kts | 43° |
| 2026-05-07 13:32 | 38.15945 | -2.25406 | 35455 ft | 492 kts | 43° |
| 2026-05-07 13:32 | 38.18309 | -2.22256 | 34800 ft | 492 kts | 40° |
| 2026-05-07 13:33 | 38.20983 | -2.19612 | 34101 ft | 484 kts | 24° |
| 2026-05-07 13:33 | 38.24047 | -2.18010 | 33330 ft | 472 kts | 9° |
| 2026-05-07 13:33 | 38.27220 | -2.16990 | 32552 ft | 472 kts | 9° |
| 2026-05-07 13:33 | 38.30416 | -2.15963 | 31925 ft | 475 kts | 9° |
| 2026-05-07 13:34 | 38.33636 | -2.14954 | 31425 ft | 478 kts | 9° |
| 2026-05-07 13:34 | 38.40131 | -2.12955 | 30430 ft | 483 kts | 10° |
| 2026-05-07 13:34 | 38.43421 | -2.11946 | 29783 ft | 488 kts | 10° |
| 2026-05-07 13:35 | 38.45609 | -2.11275 | 29356 ft | 490 kts | 11° |
| 2026-05-07 13:35 | 38.50013 | -2.09742 | 28527 ft | 494 kts | 20° |
| 2026-05-07 13:35 | 38.52043 | -2.08407 | 28123 ft | 498 kts | 32° |
| 2026-05-07 13:35 | 38.54630 | -2.05465 | 27661 ft | 502 kts | 51° |
| 2026-05-07 13:36 | 38.56697 | -2.01864 | 27222 ft | 504 kts | 52° |
| 2026-05-07 13:36 | 38.58843 | -1.98315 | 26636 ft | 504 kts | 52° |
| 2026-05-07 13:36 | 38.61003 | -1.94779 | 26095 ft | 506 kts | 52° |
| 2026-05-07 13:36 | 38.63168 | -1.91237 | 25568 ft | 504 kts | 52° |
| 2026-05-07 13:37 | 38.65319 | -1.87714 | 25048 ft | 500 kts | 53° |
| 2026-05-07 13:37 | 38.67451 | -1.84220 | 24535 ft | 496 kts | 53° |
| 2026-05-07 13:37 | 38.69564 | -1.80754 | 24033 ft | 492 kts | 53° |
| 2026-05-07 13:37 | 38.71656 | -1.77318 | 23504 ft | 488 kts | 53° |
| 2026-05-07 13:38 | 38.73726 | -1.73911 | 22870 ft | 483 kts | 53° |
| 2026-05-07 13:38 | 38.75779 | -1.70530 | 22427 ft | 478 kts | 53° |
| 2026-05-07 13:38 | 38.77813 | -1.67178 | 21976 ft | 475 kts | 53° |
| 2026-05-07 13:38 | 38.79828 | -1.63853 | 21495 ft | 470 kts | 53° |
| 2026-05-07 13:39 | 38.81824 | -1.60556 | 21023 ft | 466 kts | 53° |
| 2026-05-07 13:39 | 38.83801 | -1.57285 | 20537 ft | 461 kts | 53° |
| 2026-05-07 13:39 | 38.85756 | -1.54050 | 20089 ft | 457 kts | 53° |
| 2026-05-07 13:39 | 38.87691 | -1.50843 | 19623 ft | 449 kts | 53° |
| 2026-05-07 13:40 | 38.89584 | -1.47703 | 19186 ft | 441 kts | 53° |
| 2026-05-07 13:40 | 38.91444 | -1.44616 | 18736 ft | 433 kts | 53° |
| 2026-05-07 13:40 | 38.93269 | -1.41583 | 18311 ft | 426 kts | 53° |
| 2026-05-07 13:40 | 38.95065 | -1.38595 | 17831 ft | 419 kts | 53° |
| 2026-05-07 13:41 | 38.96855 | -1.35615 | 17377 ft | 412 kts | 53° |
| 2026-05-07 13:41 | 38.98569 | -1.32760 | 16967 ft | 406 kts | 53° |
| 2026-05-07 13:41 | 39.00298 | -1.29876 | 16549 ft | 399 kts | 53° |
| 2026-05-07 13:41 | 39.01961 | -1.27101 | 16142 ft | 394 kts | 54° |
| 2026-05-07 13:42 | 39.03628 | -1.24314 | 15686 ft | 391 kts | 53° |
| 2026-05-07 13:42 | 39.05294 | -1.21528 | 15290 ft | 386 kts | 54° |
| 2026-05-07 13:42 | 39.06918 | -1.18810 | 14884 ft | 382 kts | 54° |
| 2026-05-07 13:42 | 39.08527 | -1.16115 | 14506 ft | 377 kts | 53° |
| 2026-05-07 13:43 | 39.10114 | -1.13454 | 14129 ft | 373 kts | 54° |
| 2026-05-07 13:43 | 39.11684 | -1.10821 | 13729 ft | 369 kts | 53° |
| 2026-05-07 13:43 | 39.13240 | -1.08206 | 13313 ft | 366 kts | 53° |
| 2026-05-07 13:43 | 39.14778 | -1.05622 | 12911 ft | 361 kts | 53° |
| 2026-05-07 13:44 | 39.16278 | -1.03100 | 12550 ft | 357 kts | 54° |
| 2026-05-07 13:44 | 39.17781 | -1.00568 | 12197 ft | 355 kts | 53° |
| 2026-05-07 13:44 | 39.19297 | -0.98016 | 11775 ft | 352 kts | 54° |
| 2026-05-07 13:44 | 39.20776 | -0.95522 | 11414 ft | 348 kts | 53° |
| 2026-05-07 13:45 | 39.22235 | -0.93060 | 11074 ft | 343 kts | 53° |
| 2026-05-07 13:45 | 39.23675 | -0.90628 | 10725 ft | 339 kts | 54° |
| 2026-05-07 13:45 | 39.25099 | -0.88222 | 10371 ft | 336 kts | 53° |
| 2026-05-07 13:45 | 39.26664 | -0.86033 | 10135 ft | 329 kts | 39° |
| 2026-05-07 13:46 | 39.28583 | -0.84512 | 9968 ft | 320 kts | 25° |
| 2026-05-07 13:46 | 39.30652 | -0.83576 | 9767 ft | 313 kts | 13° |
| 2026-05-07 13:46 | 39.32797 | -0.83176 | 9398 ft | 311 kts | 2° |
| 2026-05-07 13:46 | 39.34943 | -0.83344 | 9037 ft | 309 kts | 350° |
| 2026-05-07 13:47 | 39.36999 | -0.84082 | 8691 ft | 307 kts | 339° |
| 2026-05-07 13:47 | 39.38952 | -0.85144 | 8366 ft | 301 kts | 341° |
| 2026-05-07 13:47 | 39.40906 | -0.85960 | 8043 ft | 289 kts | 346° |
| 2026-05-07 13:47 | 39.42820 | -0.86541 | 7753 ft | 277 kts | 350° |
| 2026-05-07 13:48 | 39.44685 | -0.86938 | 7470 ft | 268 kts | 354° |
| 2026-05-07 13:48 | 39.46524 | -0.87187 | 7187 ft | 265 kts | 359° |
| 2026-05-07 13:48 | 39.48355 | -0.87297 | 6911 ft | 262 kts | 2° |
| 2026-05-07 13:48 | 39.50160 | -0.87252 | 6668 ft | 256 kts | 7° |
| 2026-05-07 13:49 | 39.51863 | -0.86684 | 6283 ft | 257 kts | 32° |
| 2026-05-07 13:49 | 39.53222 | -0.85192 | 5815 ft | 259 kts | 56° |
| 2026-05-07 13:49 | 39.54162 | -0.83201 | 5370 ft | 261 kts | 61° |
| 2026-05-07 13:49 | 39.55079 | -0.81192 | 5111 ft | 258 kts | 60° |
| 2026-05-07 13:50 | 39.56004 | -0.79186 | 4802 ft | 260 kts | 61° |
| 2026-05-07 13:50 | 39.56929 | -0.77185 | 4527 ft | 258 kts | 60° |
| 2026-05-07 13:50 | 39.57766 | -0.75143 | 4234 ft | 258 kts | 73° |
| 2026-05-07 13:50 | 39.57939 | -0.72856 | 3928 ft | 257 kts | 97° |
| 2026-05-07 13:51 | 39.57416 | -0.70653 | 3620 ft | 257 kts | 113° |
| 2026-05-07 13:51 | 39.56637 | -0.68572 | 3326 ft | 256 kts | 115° |
| 2026-05-07 13:51 | 39.55857 | -0.66529 | 3003 ft | 250 kts | 114° |
| 2026-05-07 13:51 | 39.55111 | -0.64554 | 2746 ft | 236 kts | 115° |
| 2026-05-07 13:52 | 39.54409 | -0.62689 | 2373 ft | 225 kts | 115° |
| 2026-05-07 13:52 | 39.53748 | -0.60935 | 2095 ft | 209 kts | 114° |
| 2026-05-07 13:52 | 39.53134 | -0.59308 | 1851 ft | 191 kts | 114° |
| 2026-05-07 13:52 | 39.52591 | -0.57869 | 1570 ft | 161 kts | 116° |
| 2026-05-07 13:53 | 39.52118 | -0.56656 | 1355 ft | 144 kts | 114° |
| 2026-05-07 13:53 | 39.51709 | -0.55497 | 1113 ft | 143 kts | 114° |
| 2026-05-07 13:53 | 39.51257 | -0.54275 | 960 ft | 147 kts | 115° |
| 2026-05-07 13:53 | 39.50792 | -0.53098 | 741 ft | 151 kts | 115° |
| 2026-05-07 13:54 | 39.50335 | -0.51879 | 591 ft | 146 kts | 112° |
| 2026-05-07 13:54 | 39.49907 | -0.50732 | 359 ft | 143 kts | 113° |
| 2026-05-07 13:54 | 39.49465 | -0.49564 | 221 ft | 135 kts | 114° |
| 2026-05-07 13:54 | 39.49110 | -0.48628 | 220 ft | 86 kts | 116° |
| 2026-05-07 13:55 | 39.48974 | -0.48166 | 215 ft | 43 kts | 82° |
| 2026-05-07 13:55 | 39.49024 | -0.47870 | 216 ft | 29 kts | 79° |
| 2026-05-07 13:55 | 39.49048 | -0.47726 | 212 ft | 9 kts | 76° |
| 2026-05-07 13:55 | 39.49061 | -0.47646 | 216 ft | 7 kts | 95° |
| 2026-05-07 13:56 | 39.49042 | -0.47580 | 213 ft | 9 kts | 121° |
| 2026-05-07 13:56 | 39.48995 | -0.47482 | 212 ft | 15 kts | 116° |
| 2026-05-07 13:56 | 39.48966 | -0.47387 | 221 ft | 13 kts | 114° |
| 2026-05-07 13:56 | 39.48961 | -0.47306 | 213 ft | 9 kts | 18° |
| 2026-05-07 13:57 | 39.49012 | -0.47290 | 215 ft | 3 kts | 20° |
| 2026-05-07 13:57 | 39.49021 | -0.47285 | 211 ft | 0 kts | 20° |